Antelope Valley, Nevada Weather observations

Data are for 10 minute period ending at time listed.
 Day   Time   Solar   Ave.   Ave.  Ave.  Vector  Max.   Baro.   Total    
  of    of     Rad.   Air    Rel.  Wind   Wind   Wind  Press.  Precip.   
Year   Day            Temp.  Hum.  Speed  Dir.   Gust                    
2015   (PST)  Kw/m2    F      %     mph   deg.    mph    mb.     in.     
-------------------------------------------------------------------------
  57   14:30   0.67   46.5    40    8.4   300    13.7   849.7    0.00 
  57   14:40   0.31   45.1    44    6.3   258    10.1   849.7    0.00 
  57   14:50   0.20   44.8    40    5.7   291     9.9   849.6    0.00 
  57   15:00   0.19   44.2    46    5.4   247     9.2   849.5    0.00 
  57   15:10   0.14   44.1    46    6.8   240    10.5   849.4    0.00 
  57   15:20   0.14   44.0    47    4.9   231     8.1   849.3    0.00 
  57   15:30   0.13   44.2    42    6.4   307    11.2   849.2    0.00 
  57   15:40   0.13   44.3    38    7.9   324    12.3   849.2    0.00 
  57   15:50   0.15   44.4    38    8.1   332    12.9   849.0    0.00 
  57   16:00   0.13   44.3    39    8.5   335    11.8   849.0    0.00 
  57   16:10   0.13   44.1    39    7.2   341    10.0   849.1    0.00 
  57   16:20   0.10   44.3    38    7.4   333    11.2   849.1    0.00 
  57   16:30   0.07   44.1    37    7.5   342    10.2   849.1    0.00 
  57   16:40   0.04   43.8    36    8.3   341    11.5   849.1    0.00 
  57   16:50   0.04   43.6    36    7.7   348    10.9   849.0    0.00 
  57   17:00   0.04   43.5    36    7.8   343    11.3   848.9    0.00 
  57   17:10   0.03   43.2    39    4.4     9     6.9   848.9    0.00 
  57   17:20   0.02   43.0    37    6.0   337     8.7   848.8    0.00 
  57   17:30   0.02   42.5    37    5.3   318     7.7   848.6    0.00 
  57   17:40   0.01   41.9    38    5.4   316     7.4   848.6    0.00 
  57   17:50   0.00   41.0    39    4.8   310     6.4   848.5    0.00 
  57   18:00   0.00   39.6    42    3.6   312     5.0   848.4    0.00 
  57   18:10   0.00   38.6    43    2.2    29     2.9   848.3    0.00 
  57   18:20   0.00   38.5    42    3.8    84     5.6   848.3    0.00 
  57   18:30   0.00   36.1    48    4.4   103     5.8   848.2    0.00 
  57   18:40   0.00   35.3    50    3.0   100     5.0   848.3    0.00 
  57   18:50   0.00   36.5    48    4.4    90     5.8   848.1    0.00 
  57   19:00   0.00   33.8    55    3.9   105     4.7   848.1    0.00 
  57   19:10   0.00   32.6    57    4.0   126     4.5   848.0    0.00 
  57   19:20   0.00   31.7    58    4.4   128     5.0   848.0    0.00 
  57   19:30   0.00   31.3    60    4.5   124     4.9   847.9    0.00 
  57   19:40   0.00   30.5    60    4.7   137     5.6   848.0    0.00 
  57   19:50   0.00   30.6    60    3.6   159     5.6   848.0    0.00 
  57   20:00   0.00   32.3    57    3.7   171     5.9   848.0    0.00 
  57   20:10   0.00   32.1    56    3.0   218     4.5   847.9    0.00 
  57   20:20   0.00   29.8    61    1.8   249     3.1   847.8    0.00 
  57   20:30   0.00   30.4    60    2.3   226     3.0   847.8    0.00 
  57   20:40   0.00   29.3    61    4.1   243     7.7   847.8    0.00 
  57   20:50   0.00   28.1    65    4.9   224     6.3   847.7    0.00 
  57   21:00   0.00   26.8    66    2.8   226     4.5   847.7    0.00 
  57   21:10   0.00   25.6    69    1.9   118     5.3   847.8    0.00 
  57   21:20   0.00   26.6    68    2.6   119     3.4   847.8    0.00 
  57   21:30   0.00   28.0    62    3.5   152     4.2   847.7    0.00 
  57   21:40   0.00   27.8    62    3.0   156     3.8   847.6    0.00 
  57   21:50   0.00   25.3    66    2.5   162     3.1   847.6    0.00 
  57   22:00   0.00   24.2    67    4.0   148     4.6   847.5    0.00 
  57   22:10   0.00   23.7    69    2.1   153     3.7   847.5    0.00 
  57   22:20   0.00   22.7    72    2.3   252     3.0   847.5    0.00 
  57   22:30   0.00   21.3    73    2.8   197     3.3   847.4    0.00 
  57   22:40   0.00   20.8    77    2.0   177     2.9   847.3    0.00 
  57   22:50   0.00   21.6    78    1.7   175     2.9   847.2    0.00 
  57   23:00   0.00   21.8    78    1.1   268     2.7   847.0    0.00 
  57   23:10   0.00   22.7    77    3.3   261     4.3   846.8    0.00 
  57   23:20   0.00   24.5    74    2.9   261     4.2   846.8    0.00 
  57   23:30   0.00   25.0    73    3.1   229     4.8   846.7    0.00 
  57   23:40   0.00   24.9    73    3.4   197     4.5   846.7    0.00 
  57   23:50   0.00   24.6    76    3.7   169     4.2   846.5    0.00 
  58    0:00   0.00   25.4    75    3.5   174     4.7   846.4    0.00 
  58    0:10   0.00   26.4    72    4.2   189     5.3   846.4    0.00 
  58    0:20   0.00   26.8    72    2.7   151     3.5   846.3    0.00 
  58    0:30   0.00   27.4    68    3.1   182     4.4   846.2    0.00 
  58    0:40   0.00   27.7    68    3.3   246     4.2   846.2    0.00 
  58    0:50   0.00   26.4    72    2.2   249     3.4   846.1    0.00 
  58    1:00   0.00   26.0    72    1.3   247     1.9   846.1    0.00 
  58    1:10   0.00   26.4    71    2.0   189     4.3   846.1    0.00 
  58    1:20   0.00   27.6    67    2.7   189     3.7   846.0    0.00 
  58    1:30   0.00   28.0    65    2.4   176     3.1   845.8    0.00 
  58    1:40   0.00   27.9    66    3.2   217     3.7   845.6    0.00 
  58    1:50   0.00   26.4    73    3.3   246     4.1   845.6    0.00 
  58    2:00   0.00   26.8    72    3.8   249     5.0   845.5    0.00 
  58    2:10   0.00   27.1    70    4.5   246     5.5   845.3    0.00 
  58    2:20   0.00   27.3    70    4.5   242     6.4   845.1    0.00 
  58    2:30   0.00   27.5    69    5.9   253     7.2   845.1    0.00 
  58    2:40   0.00   28.0    68    6.1   234     7.3   845.0    0.00 
  58    2:50   0.00   28.0    67    5.5   217     7.9   844.8    0.00 
  58    3:00   0.00   27.7    70    4.3   196     5.4   844.7    0.00 
  58    3:10   0.00   27.7    71    3.1   182     4.6   844.6    0.00 
  58    3:20   0.00   28.5    70    3.1   182     4.2   844.6    0.00 
  58    3:30   0.00   29.0    68    2.9   191     4.2   844.5    0.00 
  58    3:40   0.00   29.0    69    4.5   203     6.6   844.5    0.00 
  58    3:50   0.00   29.6    68    6.2   201     8.6   844.4    0.00 
  58    4:00   0.00   30.3    64    7.6   225    10.1   844.4    0.00 
  58    4:10   0.00   29.9    65    6.2   209     8.3   844.4    0.00 
  58    4:20   0.00   29.6    68    5.5   186     6.8   844.4    0.00 
  58    4:30   0.00   29.7    71    4.9   190     6.6   844.3    0.00 
  58    4:40   0.00   29.9    73    4.1   181     5.3   844.4    0.00 
  58    4:50   0.00   29.9    76    5.0   190     6.6   844.3    0.00 
  58    5:00   0.00   31.0    77    6.7   220     8.3   844.2    0.00 
  58    5:10   0.00   31.4    78    6.3   232     8.2   844.1    0.00 
  58    5:20   0.00   31.3    81    5.4   226     6.8   844.1    0.00 
  58    5:30   0.00   31.5    83    6.5   229     8.6   844.0    0.00 
  58    5:40   0.00   31.9    85    8.3   238    10.9   843.8    0.00 
  58    5:50   0.00   32.3    85    9.8   241    13.1   843.7    0.00 
  58    6:00   0.00   32.4    85    8.2   239    11.3   843.7    0.00 
  58    6:10   0.00   32.4    86    7.4   235    10.5   843.7    0.00 
  58    6:20   0.00   32.3    86    6.8   222     8.8   843.6    0.00 
  58    6:30   0.00   32.3    86    7.8   222    10.9   843.5    0.00 
  58    6:40   0.01   32.2    87    6.5   197     8.5   843.4    0.00 
  58    6:50   0.01   31.9    87    6.1   187     7.9   843.2    0.00 
  58    7:00   0.01   31.8    88    5.1   185     6.4   843.3    0.00 
  58    7:10   0.02   31.9    88    4.9   171     7.1   843.3    0.00 
  58    7:20   0.05   32.3    88    5.4   167     6.9   843.2    0.00 
  58    7:30   0.06   32.7    87    4.4   171     6.5   843.2    0.00 
  58    7:40   0.07   33.0    86    4.9   170     6.3   843.2    0.00 
  58    7:50   0.09   34.0    82    6.5   219     9.4   843.1    0.00 
  58    8:00   0.12   35.0    78    8.0   239    11.7   843.1    0.00 
  58    8:10   0.14   35.3    77   11.1   246    14.8   843.0    0.00 
  58    8:20   0.14   35.4    77   11.9   252    16.1   842.9    0.00 
  58    8:30   0.09   34.5    82   12.2   256    15.6   842.9    0.00 
  58    8:40   0.04   32.5    91   11.0   257    14.9   842.9    0.00 
  58    8:50   0.08   31.9    94    7.0   256    10.4   843.0    0.00 
  58    9:00   0.12   32.0    95    5.6   253     7.4   843.0    0.00 
  58    9:10   0.20   32.5    95    4.6   242     6.6   842.9    0.00 
  58    9:20   0.30   33.4    94    4.7   238     6.2   842.9    0.00 
  58    9:30   0.48   34.7    92    4.7   227     7.9   842.8    0.00 
  58    9:40   0.45   35.6    88    2.0   232     4.2   842.7    0.00 
  58    9:50   0.47   36.9    86    1.6   197     4.5   842.6    0.00 
  58   10:00   0.29   36.9    82    2.6   223     5.3   842.5    0.00 
  58   10:10   0.26   37.0    81    2.4   194     4.9   842.4    0.00 
  58   10:20   0.31   37.6    80    1.8   196     4.9   842.4    0.00 
  58   10:30   0.35   38.5    77    2.4   186     5.5   842.2    0.00 
  58   10:40   0.35   39.3    74    2.8   208     5.7   842.1    0.00 
  58   10:50   0.46   39.8    70    3.3   219     5.8   842.0    0.00 
  58   11:00   0.46   40.3    68    2.6   227     7.5   841.8    0.00 
  58   11:10   0.63   41.1    67    2.9   244     6.9   841.7    0.00 
  58   11:20   0.71   42.5    63    2.9   256     7.5   841.6    0.00 
  58   11:30   0.68   43.1    61    3.2   190     7.8   841.5    0.00 
  58   11:40   0.81   44.1    59    3.6   207     8.6   841.5    0.00 
  58   11:50   0.75   44.0    58    4.0   224    10.5   841.3    0.00 
  58   12:00   0.40   43.9    55    5.3   197    10.9   841.1    0.00 
  58   12:10   0.31   43.5    55    4.9   196    10.4   840.9    0.00 
  58   12:20   0.34   43.1    56    5.6   241    10.5   840.6    0.00 
  58   12:30   0.36   43.7    55    6.3   226    14.5   840.3    0.00 
  58   12:40   0.34   43.5    54    9.9   241    16.2   840.2    0.00 
  58   12:50   0.29   43.3    54    4.8   256     9.4   840.0    0.00 
  58   13:00   0.36   42.9    57    8.6   310    12.2   839.7    0.00 
  58   13:10   0.83   45.1    52    4.3   272    11.4   839.4    0.00 
  58   13:20   0.60   46.0    48    6.3   276    11.3   839.3    0.00 
  58   13:30   0.22   44.6    50    4.9   234     8.8   839.1    0.00 
  58   13:40   0.17   44.5    49    2.3   256     6.6   838.9    0.00 
  58   13:50   0.17   44.7    48    4.2   259     8.1   838.7    0.00 
  58   14:00   0.19   44.7    48    3.8   252     8.3   838.6    0.00 
  58   14:10   0.22   44.9    47    4.5   275    10.1   838.4    0.00 
  58   14:20   0.20   45.3    46    5.6   254     9.9   838.2    0.00 

Return to Antelope Valley graphs page.


Western Regional Climate Center,wrcc@dri.edu